createdAt,value
2022-08-07T00:00:54.995Z,2.25
2022-08-07T00:03:36.600Z,2.65
2022-08-07T00:06:06.196Z,2.85
2022-08-07T00:08:37.043Z,2.20
2022-08-07T00:11:19.858Z,2.20
2022-08-07T00:13:58.624Z,2.13
2022-08-07T00:16:28.279Z,3.42
2022-08-07T00:18:56.980Z,2.50
2022-08-07T00:21:56.858Z,2.30
2022-08-07T00:24:14.626Z,2.15
2022-08-07T00:26:58.652Z,2.47
2022-08-07T00:29:37.024Z,2.90
2022-08-07T00:32:06.816Z,2.42
2022-08-07T00:34:35.735Z,2.78
2022-08-07T00:37:04.927Z,2.70
2022-08-07T00:39:34.586Z,2.22
2022-08-07T00:42:05.929Z,2.40
2022-08-07T00:44:38.384Z,2.00
2022-08-07T00:47:16.019Z,2.63
2022-08-07T00:50:21.169Z,2.25
2022-08-07T00:52:47.760Z,2.47
2022-08-07T00:55:17.490Z,2.50
2022-08-07T00:57:56.361Z,2.25
2022-08-07T01:00:25.831Z,3.05
2022-08-07T01:02:54.694Z,2.47
2022-08-07T01:05:25.238Z,2.60
2022-08-07T01:07:53.783Z,2.50
2022-08-07T01:12:54.655Z,2.30
2022-08-07T01:16:00.882Z,2.45
2022-08-07T01:18:18.345Z,2.67
2022-08-07T01:20:57.518Z,3.10
2022-08-07T01:23:39.447Z,3.00
2022-08-07T01:26:13.773Z,2.55
2022-08-07T01:28:48.686Z,2.05
2022-08-07T01:31:30.050Z,2.78
2022-08-07T01:34:12.173Z,2.88
2022-08-07T01:36:44.168Z,2.42
2022-08-07T01:39:19.800Z,3.10
2022-08-07T01:42:37.750Z,2.35
2022-08-07T01:44:48.141Z,2.25
2022-08-07T01:48:19.073Z,3.00
2022-08-07T01:50:08.276Z,3.00
2022-08-07T01:52:38.364Z,3.17
2022-08-07T01:55:22.374Z,3.35
2022-08-07T01:58:06.819Z,2.78
2022-08-07T02:00:49.321Z,2.97
2022-08-07T02:03:26.515Z,2.80
2022-08-07T02:06:30.730Z,2.47
2022-08-07T02:09:05.855Z,2.47
2022-08-07T02:12:03.341Z,3.10
2022-08-07T02:14:40.235Z,2.92
2022-08-07T02:17:27.576Z,3.35
2022-08-07T02:20:07.751Z,3.00
2022-08-07T02:22:47.792Z,3.00
2022-08-07T02:26:10.735Z,2.95
2022-08-07T02:28:24.447Z,3.35
2022-08-07T02:30:56.901Z,3.30
2022-08-07T02:33:42.296Z,3.33
2022-08-07T02:36:30.727Z,3.33
2022-08-07T02:39:16.230Z,2.97
2022-08-07T02:41:54.182Z,2.80
2022-08-07T02:44:30.312Z,3.10
2022-08-07T02:47:06.374Z,3.92
2022-08-07T02:49:56.002Z,3.00
2022-08-07T02:52:32.389Z,3.03
2022-08-07T02:55:27.714Z,3.25
2022-08-07T02:57:59.131Z,4.05
2022-08-07T03:00:31.210Z,3.50
2022-08-07T03:03:00.609Z,3.35
2022-08-07T03:05:37.893Z,3.25
2022-08-07T03:08:10.571Z,3.60
2022-08-07T03:10:46.717Z,3.70
2022-08-07T03:13:20.267Z,3.30
2022-08-07T03:15:58.465Z,3.28
2022-08-07T03:18:35.084Z,3.78
2022-08-07T03:21:08.446Z,3.83
2022-08-07T03:24:17.780Z,5.65
2022-08-07T03:29:03.566Z,3.72
2022-08-07T03:31:42.706Z,3.83
2022-08-07T03:34:18.675Z,3.13
2022-08-07T03:36:52.941Z,3.60
2022-08-07T03:39:46.405Z,3.95
2022-08-07T03:42:13.274Z,4.10
2022-08-07T03:44:53.073Z,3.55
2022-08-07T03:47:23.760Z,3.00
2022-08-07T03:49:53.477Z,3.60
2022-08-07T03:52:29.330Z,3.58
2022-08-07T03:55:06.868Z,4.57
2022-08-07T03:58:34.252Z,4.00
2022-08-07T04:00:33.875Z,3.47
2022-08-07T04:03:06.679Z,3.15
2022-08-07T04:05:42.280Z,4.07
2022-08-07T04:08:22.282Z,3.90
2022-08-07T04:12:21.124Z,4.10
2022-08-07T04:14:09.403Z,2.97
2022-08-07T04:16:35.279Z,4.03
2022-08-07T04:19:14.621Z,3.88
2022-08-07T04:22:05.422Z,3.33
2022-08-07T04:24:43.311Z,3.28
2022-08-07T04:27:25.370Z,3.15
2022-08-07T04:30:02.261Z,3.10
2022-08-07T04:32:48.134Z,3.08
2022-08-07T04:38:08.971Z,3.22
2022-08-07T04:40:52.979Z,3.30
2022-08-07T04:44:10.578Z,3.50
2022-08-07T04:46:34.430Z,3.22
2022-08-07T04:49:24.408Z,3.28
2022-08-07T04:52:01.783Z,3.20
2022-08-07T04:54:35.285Z,3.35
2022-08-07T04:58:13.157Z,3.60
2022-08-07T05:00:19.020Z,3.90
2022-08-07T05:03:17.309Z,4.43
2022-08-07T05:06:02.173Z,4.60
2022-08-07T05:09:01.035Z,5.40
2022-08-07T05:11:58.429Z,6.30
2022-08-07T05:14:53.190Z,6.70
2022-08-07T05:17:51.727Z,5.57
2022-08-07T05:20:12.150Z,3.35
2022-08-07T05:22:43.258Z,3.45
2022-08-07T05:25:25.901Z,3.17
2022-08-07T05:28:21.362Z,2.25
2022-08-07T05:30:57.256Z,1.98
2022-08-07T05:33:28.805Z,2.58
2022-08-07T05:35:59.933Z,1.90
2022-08-07T05:38:59.790Z,2.20
2022-08-07T05:41:21.914Z,2.13
2022-08-07T05:44:12.225Z,2.08
2022-08-07T05:46:46.151Z,3.35
2022-08-07T05:49:24.360Z,2.65
2022-08-07T05:51:56.354Z,1.88
2022-08-07T05:54:30.959Z,1.67
2022-08-07T05:57:08.346Z,1.98
2022-08-07T05:59:56.112Z,1.45
2022-08-07T06:02:31.945Z,1.38
2022-08-07T06:05:06.446Z,1.50
2022-08-07T06:08:14.134Z,1.73
2022-08-07T06:10:26.560Z,1.58
2022-08-07T06:12:56.912Z,1.35
2022-08-07T06:15:42.220Z,1.23
2022-08-07T06:18:14.344Z,2.20
2022-08-07T06:20:50.994Z,1.58
2022-08-07T06:24:37.908Z,1.67
2022-08-07T06:26:27.402Z,1.75
2022-08-07T06:29:01.353Z,1.33
2022-08-07T06:31:38.791Z,1.73
2022-08-07T06:34:20.519Z,1.15
2022-08-07T06:36:51.972Z,1.20
2022-08-07T06:40:16.391Z,1.35
2022-08-07T06:42:19.306Z,1.08
2022-08-07T06:45:06.569Z,2.25
2022-08-07T06:47:57.189Z,1.00
2022-08-07T06:50:30.434Z,1.70
2022-08-07T06:53:04.109Z,1.27
2022-08-07T06:55:52.651Z,1.23
2022-08-07T06:58:27.614Z,1.40
2022-08-07T07:01:08.984Z,1.57
2022-08-07T07:03:48.584Z,0.90
2022-08-07T07:06:26.426Z,1.15
2022-08-07T07:08:56.980Z,1.13
2022-08-07T07:14:17.165Z,1.15
2022-08-07T07:16:50.974Z,0.90
2022-08-07T07:19:55.019Z,1.30
2022-08-07T07:22:36.434Z,1.10
2022-08-07T07:26:31.006Z,1.05
2022-08-07T07:28:02.308Z,1.23
2022-08-07T07:30:38.480Z,1.33
2022-08-07T07:33:13.586Z,1.15
2022-08-07T07:36:05.272Z,1.27
2022-08-07T07:38:36.047Z,0.80
2022-08-07T07:41:08.752Z,1.00
2022-08-07T07:43:47.990Z,1.23
2022-08-07T07:46:37.966Z,2.80
2022-08-07T07:50:34.881Z,0.88
2022-08-07T07:52:20.624Z,1.25
2022-08-07T07:54:52.535Z,0.95
2022-08-07T07:57:52.586Z,1.00
2022-08-07T08:00:18.283Z,0.80
2022-08-07T08:03:04.621Z,1.33
2022-08-07T08:05:50.885Z,1.48
2022-08-07T08:08:34.603Z,1.45
2022-08-07T08:11:05.841Z,1.00
2022-08-07T08:13:53.171Z,1.20
2022-08-07T08:16:31.235Z,1.33
2022-08-07T08:19:17.298Z,1.30
2022-08-07T08:22:08.147Z,0.90
2022-08-07T08:25:18.718Z,0.95
2022-08-07T08:27:56.002Z,0.93
2022-08-07T08:30:27.143Z,1.00
2022-08-07T08:32:59.933Z,0.77
2022-08-07T08:35:39.616Z,1.10
2022-08-07T08:38:25.803Z,0.80
2022-08-07T08:41:00.011Z,1.00
2022-08-07T08:43:42.221Z,1.08
2022-08-07T08:46:15.741Z,1.20
2022-08-07T08:48:50.960Z,1.33
2022-08-07T08:51:49.478Z,1.27
2022-08-07T08:54:24.196Z,0.95
2022-08-07T08:56:54.906Z,0.95
2022-08-07T08:59:29.222Z,1.13
2022-08-07T09:02:02.419Z,0.80
2022-08-07T09:04:41.597Z,1.10
2022-08-07T09:12:31.644Z,0.85
2022-08-07T09:16:21.619Z,1.10
2022-08-07T09:18:22.510Z,0.95
2022-08-07T09:21:01.338Z,0.85
2022-08-07T09:24:30.859Z,0.80
2022-08-07T09:26:32.953Z,1.00
2022-08-07T09:30:00.712Z,1.00
2022-08-07T09:32:01.251Z,0.70
2022-08-07T09:34:34.138Z,1.10
2022-08-07T09:37:06.486Z,0.85
2022-08-07T09:39:57.764Z,0.82
2022-08-07T09:42:40.052Z,1.17
2022-08-07T09:47:24.152Z,0.80
2022-08-07T09:48:16.399Z,1.05
2022-08-07T09:51:02.706Z,0.73
2022-08-07T09:53:40.793Z,1.20
2022-08-07T09:56:44.569Z,1.02
2022-08-07T09:59:46.189Z,0.77
2022-08-07T10:04:03.830Z,1.02
2022-08-07T10:06:12.253Z,1.10
2022-08-07T10:09:34.206Z,0.63
2022-08-07T10:12:26.444Z,0.80
2022-08-07T10:15:08.659Z,0.82
2022-08-07T10:18:08.861Z,0.60
2022-08-07T10:20:45.561Z,0.90
2022-08-07T10:24:06.776Z,0.80
2022-08-07T10:27:10.413Z,0.80
2022-08-07T10:29:54.282Z,1.10
2022-08-07T10:32:53.196Z,1.00
2022-08-07T10:35:53.689Z,0.77
2022-08-07T10:38:46.465Z,0.57
2022-08-07T10:41:51.292Z,0.85
2022-08-07T10:44:19.486Z,0.82
2022-08-07T10:47:11.814Z,0.75
2022-08-07T10:49:51.286Z,0.82
2022-08-07T10:52:33.592Z,0.75
2022-08-07T10:55:32.501Z,1.60
2022-08-07T10:58:12.119Z,0.73
2022-08-07T11:00:50.445Z,0.75
2022-08-07T11:03:37.873Z,0.77
2022-08-07T11:06:23.214Z,1.05
2022-08-07T11:09:00.745Z,0.88
2022-08-07T11:11:35.624Z,0.80
2022-08-07T11:14:44.286Z,1.25
2022-08-07T11:17:12.724Z,0.90
2022-08-07T11:19:47.373Z,0.70
2022-08-07T11:22:32.479Z,0.80
2022-08-07T11:25:12.988Z,0.88
2022-08-07T11:28:02.999Z,0.63
2022-08-07T11:30:42.387Z,1.20
2022-08-07T11:33:19.358Z,0.77
2022-08-07T11:36:25.208Z,2.05
2022-08-07T11:39:08.019Z,0.70
2022-08-07T11:42:00.208Z,0.70
2022-08-07T11:44:52.584Z,0.70
2022-08-07T11:47:55.858Z,0.63
2022-08-07T11:50:44.543Z,0.90
2022-08-07T11:53:36.356Z,0.65
2022-08-07T11:56:26.853Z,0.75
2022-08-07T11:59:22.237Z,0.60
2022-08-07T12:02:03.739Z,1.30
2022-08-07T12:04:58.609Z,0.85
2022-08-07T12:07:38.923Z,0.70
2022-08-07T12:10:21.031Z,0.90
2022-08-07T12:12:56.860Z,0.70
2022-08-07T12:15:58.047Z,0.63
2022-08-07T12:18:29.665Z,0.90
2022-08-07T12:21:06.377Z,0.70
2022-08-07T12:24:05.737Z,0.80
2022-08-07T12:26:46.801Z,1.05
2022-08-07T12:29:37.908Z,0.82
2022-08-07T12:32:13.965Z,0.80
2022-08-07T12:34:49.480Z,0.95
2022-08-07T12:37:23.432Z,0.70
2022-08-07T12:39:59.600Z,0.55
2022-08-07T12:42:32.211Z,0.70
2022-08-07T12:45:09.012Z,1.50
2022-08-07T12:47:44.179Z,0.68
2022-08-07T12:50:38.460Z,0.70
2022-08-07T12:53:18.002Z,0.77
2022-08-07T12:56:03.433Z,0.68
2022-08-07T12:58:39.627Z,0.90
2022-08-07T13:01:21.365Z,0.85
2022-08-07T13:04:06.302Z,1.53
2022-08-07T13:08:11.654Z,0.82
2022-08-07T13:10:37.161Z,0.95
2022-08-07T13:13:48.918Z,1.07
2022-08-07T13:16:11.968Z,1.70
2022-08-07T13:18:50.756Z,1.00
2022-08-07T13:21:37.647Z,0.90
2022-08-07T13:24:20.372Z,0.98
2022-08-07T13:26:59.340Z,0.95
2022-08-07T13:29:42.414Z,1.42
2022-08-07T13:32:31.814Z,1.00
2022-08-07T13:35:08.664Z,1.30
2022-08-07T13:37:43.691Z,0.70
2022-08-07T13:40:36.239Z,0.80
2022-08-07T13:43:16.158Z,0.85
2022-08-07T13:46:11.104Z,0.70
2022-08-07T13:48:39.062Z,0.98
2022-08-07T13:51:28.153Z,0.85
2022-08-07T13:54:01.709Z,0.90
2022-08-07T13:56:36.051Z,0.90
2022-08-07T13:59:14.036Z,1.05
2022-08-07T14:01:50.996Z,0.80
2022-08-07T14:04:35.576Z,0.70
2022-08-07T14:07:09.255Z,0.73
2022-08-07T14:10:17.623Z,0.95
2022-08-07T14:12:41.516Z,0.88
2022-08-07T14:15:22.429Z,0.90
2022-08-07T14:18:23.990Z,0.70
2022-08-07T14:20:54.527Z,0.70
2022-08-07T14:23:31.587Z,0.73
2022-08-07T14:26:28.125Z,0.88
2022-08-07T14:29:08.849Z,0.90
2022-08-07T14:31:42.948Z,0.73
2022-08-07T14:34:27.188Z,1.65
2022-08-07T14:37:02.010Z,1.08
2022-08-07T14:40:15.934Z,1.05
2022-08-07T14:42:31.446Z,0.90
2022-08-07T14:50:44.954Z,0.95
2022-08-07T14:53:15.585Z,0.82
2022-08-07T14:58:42.876Z,0.88
2022-08-07T15:01:22.238Z,0.88
2022-08-07T15:04:05.812Z,0.80
2022-08-07T15:06:36.486Z,0.90
2022-08-07T15:09:59.591Z,0.95
2022-08-07T15:12:02.948Z,0.50
2022-08-07T15:14:35.908Z,0.80
2022-08-07T15:17:32.674Z,1.20
2022-08-07T15:20:33.021Z,1.00
2022-08-07T15:23:20.164Z,1.10
2022-08-07T15:25:56.655Z,0.95
2022-08-07T15:32:00.470Z,0.95
2022-08-07T15:37:04.013Z,0.98
2022-08-07T15:39:56.653Z,0.77
2022-08-07T15:42:57.892Z,1.05
2022-08-07T15:45:57.226Z,1.15
2022-08-07T15:48:25.655Z,1.08
2022-08-07T15:53:53.107Z,0.95
2022-08-07T15:56:25.976Z,0.80
2022-08-07T15:58:59.010Z,0.90
2022-08-07T16:01:38.870Z,0.68
2022-08-07T16:04:15.353Z,0.80
2022-08-07T16:06:50.467Z,0.70
2022-08-07T16:09:40.936Z,1.48
2022-08-07T16:12:29.226Z,1.00
2022-08-07T16:15:54.413Z,1.20
2022-08-07T16:18:49.869Z,1.17
2022-08-07T16:22:01.835Z,1.30
2022-08-07T16:24:02.303Z,1.30
2022-08-07T16:26:59.133Z,1.10
2022-08-07T16:30:11.388Z,1.27
2022-08-07T16:32:36.890Z,0.95
2022-08-07T16:35:51.700Z,0.95
2022-08-07T16:39:02.425Z,0.85
2022-08-07T16:41:48.548Z,1.20
2022-08-07T16:45:14.380Z,2.30
2022-08-07T16:47:57.074Z,1.48
2022-08-07T16:50:38.777Z,2.30
2022-08-07T16:54:02.225Z,2.53
2022-08-07T16:56:19.817Z,2.53
2022-08-07T16:59:14.356Z,2.67
2022-08-07T17:01:59.750Z,1.83
2022-08-07T17:04:51.004Z,1.25
2022-08-07T17:07:55.969Z,1.60
2022-08-07T17:10:54.333Z,1.27
2022-08-07T17:14:19.370Z,1.60
2022-08-07T17:16:43.563Z,1.48
2022-08-07T17:20:00.705Z,1.25
2022-08-07T17:22:16.588Z,1.15
2022-08-07T17:25:01.287Z,1.40
2022-08-07T17:27:39.906Z,1.40
2022-08-07T17:30:26.653Z,1.25
2022-08-07T17:33:39.107Z,1.30
2022-08-07T17:36:04.304Z,1.40
2022-08-07T17:38:52.427Z,1.70
2022-08-07T17:42:04.014Z,1.98
2022-08-07T17:44:33.783Z,1.50
2022-08-07T17:47:17.092Z,1.90
2022-08-07T17:49:52.957Z,1.73
2022-08-07T17:52:29.727Z,2.83
2022-08-07T17:55:07.148Z,2.13
2022-08-07T17:57:56.242Z,2.20
2022-08-07T18:00:34.674Z,2.58
2022-08-07T18:03:25.570Z,1.67
2022-08-07T18:06:02.859Z,2.20
2022-08-07T18:09:01.077Z,1.90
2022-08-07T18:12:16.482Z,2.42
2022-08-07T18:14:38.391Z,2.03
2022-08-07T18:18:39.640Z,1.70
2022-08-07T18:21:11.869Z,2.97
2022-08-07T18:23:42.649Z,1.98
2022-08-07T18:26:16.352Z,2.05
2022-08-07T18:28:58.434Z,2.60
2022-08-07T18:31:38.771Z,2.30
2022-08-07T18:34:37.159Z,2.20
2022-08-07T18:38:58.725Z,1.77
2022-08-07T18:40:42.453Z,2.30
2022-08-07T18:43:15.088Z,1.70
2022-08-07T18:46:24.748Z,2.17
2022-08-07T18:50:04.860Z,2.28
2022-08-07T18:52:51.729Z,2.47
2022-08-07T18:54:38.531Z,2.60
2022-08-07T18:57:30.524Z,3.65
2022-08-07T19:00:33.946Z,2.80
2022-08-07T19:03:03.772Z,3.17
2022-08-07T19:06:03.267Z,3.60
2022-08-07T19:08:46.559Z,4.20
2022-08-07T19:11:35.348Z,3.20
2022-08-07T19:14:19.869Z,3.13
2022-08-07T19:17:07.046Z,3.90
2022-08-07T19:19:51.091Z,3.38
2022-08-07T19:22:31.423Z,3.10
2022-08-07T19:25:06.914Z,3.55
2022-08-07T19:28:29.453Z,4.20
2022-08-07T19:31:03.754Z,4.22
2022-08-07T19:33:17.232Z,3.78
2022-08-07T19:35:54.680Z,3.97
2022-08-07T19:38:25.561Z,3.60
2022-08-07T19:41:00.553Z,3.85
2022-08-07T19:43:48.737Z,3.28
2022-08-07T19:46:26.370Z,3.70
2022-08-07T19:48:59.527Z,3.60
2022-08-07T19:51:52.229Z,5.30
2022-08-07T19:54:34.867Z,4.18
2022-08-07T19:58:02.616Z,4.60
2022-08-07T20:00:08.903Z,4.78
2022-08-07T20:02:53.376Z,4.70
2022-08-07T20:05:28.198Z,4.50
2022-08-07T20:08:01.929Z,4.68
2022-08-07T20:10:54.358Z,4.15
2022-08-07T20:13:27.050Z,4.55
2022-08-07T20:16:02.281Z,3.97
2022-08-07T20:18:34.560Z,3.95
2022-08-07T20:21:21.168Z,3.72
2022-08-07T20:24:01.121Z,4.35
2022-08-07T20:26:32.773Z,3.83
2022-08-07T20:29:46.651Z,3.40
2022-08-07T20:32:02.235Z,3.90
2022-08-07T20:34:49.247Z,4.18
2022-08-07T20:37:23.809Z,5.60
2022-08-07T20:40:04.114Z,5.18
2022-08-07T20:42:35.406Z,3.70
2022-08-07T20:45:33.298Z,4.38
2022-08-07T20:47:58.651Z,3.90
2022-08-07T20:50:30.301Z,4.13
2022-08-07T20:52:59.636Z,4.40
2022-08-07T20:55:31.949Z,3.58
2022-08-07T20:58:04.007Z,4.07
2022-08-07T21:00:44.496Z,3.55
2022-08-07T21:03:19.221Z,3.95
2022-08-07T21:05:56.544Z,4.40
2022-08-07T21:08:35.060Z,4.45
2022-08-07T21:11:11.920Z,5.30
2022-08-07T21:13:57.474Z,4.05
2022-08-07T21:19:01.485Z,4.10
2022-08-07T21:21:33.307Z,4.00
2022-08-07T21:24:28.381Z,4.93
2022-08-07T21:27:06.949Z,4.30
2022-08-07T21:29:43.551Z,3.95
2022-08-07T21:32:47.266Z,3.75
2022-08-07T21:36:04.928Z,4.18
2022-08-07T21:38:14.247Z,4.05
2022-08-07T21:40:47.461Z,4.07
2022-08-07T21:43:24.578Z,4.50
2022-08-07T21:46:24.746Z,3.88
2022-08-07T21:49:05.243Z,4.82
2022-08-07T21:51:54.902Z,4.10
2022-08-07T21:54:30.878Z,4.07
2022-08-07T21:57:15.958Z,4.85
2022-08-07T22:00:07.241Z,4.00
2022-08-07T22:02:42.730Z,4.40
2022-08-07T22:05:44.386Z,5.10
2022-08-07T22:08:13.685Z,5.47
2022-08-07T22:10:42.920Z,6.38
2022-08-07T22:13:16.070Z,7.95
2022-08-07T22:16:39.685Z,5.78
2022-08-07T22:18:41.866Z,4.75
2022-08-07T22:21:19.204Z,4.72
2022-08-07T22:23:53.536Z,3.80
2022-08-07T22:26:25.632Z,4.20
2022-08-07T22:29:00.748Z,4.80
2022-08-07T22:32:00.390Z,4.70
2022-08-07T22:34:35.655Z,5.28
2022-08-07T22:37:19.468Z,5.50
2022-08-07T22:40:00.599Z,4.90
2022-08-07T22:42:35.319Z,4.70
2022-08-07T22:45:10.978Z,5.00
2022-08-07T22:48:31.538Z,4.97
2022-08-07T22:51:23.369Z,4.40
2022-08-07T22:54:06.588Z,3.95
2022-08-07T22:56:48.927Z,3.80
2022-08-07T22:59:47.100Z,4.63
2022-08-07T23:02:27.659Z,4.75
2022-08-07T23:06:08.567Z,5.15
2022-08-07T23:08:32.461Z,4.57
2022-08-07T23:11:16.458Z,5.10
2022-08-07T23:14:15.358Z,4.88
2022-08-07T23:17:00.306Z,4.28
2022-08-07T23:19:58.048Z,4.22
2022-08-07T23:22:39.663Z,4.95
2022-08-07T23:25:20.788Z,4.43
2022-08-07T23:28:21.672Z,4.53
2022-08-07T23:31:11.485Z,4.32
2022-08-07T23:34:33.814Z,3.13
2022-08-07T23:37:17.711Z,3.88
2022-08-07T23:39:44.085Z,4.40
2022-08-07T23:42:21.704Z,3.88
2022-08-07T23:45:15.346Z,3.92
2022-08-07T23:48:07.226Z,4.05
2022-08-07T23:50:41.150Z,4.22
2022-08-07T23:53:51.388Z,4.25
2022-08-07T23:56:21.415Z,4.20
2022-08-07T23:59:10.935Z,4.82
